Terminal Aerodrome Forecast
Issued by NWS Lake Charles, LA

Home | Current Version | Previous Version | Text Only | Print | Product List | Glossary On
Versions: 1 2 3 4 5 6 7 8 9 10 11 12 13 14 15 16 17
000
FTUS44 KLCH 030520
TAFARA
TAF
KARA 030520Z 0306/0406 11003KT P6SM FEW025
      TEMPO 0309/0313 5SM BR BKN025
     FM031400 15010KT P6SM VCTS SCT035CB PROB30 0315/0321 3SM TSRA
      OVC025CB=

USA.gov is the U.S. government's official web portal to all federal, state and local government web resources and services.